createdAt,value
2023-04-16T00:00:37.271Z,22.00
2023-04-16T00:01:36.424Z,23.30
2023-04-16T00:02:37.538Z,23.20
2023-04-16T00:03:37.536Z,22.70
2023-04-16T00:04:36.511Z,24.20
2023-04-16T00:05:36.395Z,23.70
2023-04-16T00:06:36.344Z,22.80
2023-04-16T00:07:37.119Z,22.40
2023-04-16T00:08:37.283Z,22.90
2023-04-16T00:09:36.446Z,22.30
2023-04-16T00:10:36.323Z,24.50
2023-04-16T00:11:36.283Z,23.40
2023-04-16T00:12:37.146Z,22.90
2023-04-16T00:13:37.107Z,23.20
2023-04-16T00:14:37.204Z,23.40
2023-04-16T00:15:37.133Z,24.40
2023-04-16T00:16:36.390Z,24.20
2023-04-16T00:17:37.191Z,23.40
2023-04-16T00:18:37.077Z,22.90
2023-04-16T00:19:36.186Z,24.10
2023-04-16T00:20:36.620Z,23.80
2023-04-16T00:21:36.161Z,23.70
2023-04-16T00:22:37.030Z,23.30
2023-04-16T00:23:37.106Z,22.40
2023-04-16T00:24:37.008Z,22.80
2023-04-16T00:25:36.937Z,22.20
2023-04-16T00:26:36.830Z,24.20
2023-04-16T00:27:36.982Z,22.90
2023-04-16T00:28:36.880Z,22.80
2023-04-16T00:29:39.792Z,22.50
2023-04-16T00:30:36.974Z,21.40
2023-04-16T00:31:36.853Z,22.70
2023-04-16T00:32:36.797Z,23.30
2023-04-16T00:33:36.929Z,21.70
2023-04-16T00:34:35.984Z,22.50
2023-04-16T00:35:36.726Z,22.60
2023-04-16T00:36:35.928Z,21.90
2023-04-16T00:37:36.805Z,23.60
2023-04-16T00:38:35.956Z,23.10
2023-04-16T00:39:36.888Z,22.70
2023-04-16T00:40:35.900Z,22.20
2023-04-16T00:41:36.660Z,21.70
2023-04-16T00:42:35.837Z,21.90
2023-04-16T00:43:35.862Z,21.10
2023-04-16T00:44:35.911Z,23.00
2023-04-16T00:45:35.832Z,22.10
2023-04-16T00:46:36.731Z,22.60
2023-04-16T00:47:35.980Z,22.10
2023-04-16T00:48:36.761Z,21.80
2023-04-16T00:49:36.698Z,21.30
2023-04-16T00:50:36.566Z,22.50
2023-04-16T00:51:35.728Z,22.60
2023-04-16T00:52:36.845Z,22.60
2023-04-16T00:53:35.690Z,21.20
2023-04-16T00:54:36.444Z,21.60
2023-04-16T00:55:35.669Z,22.50
2023-04-16T00:56:36.301Z,21.80
2023-04-16T00:57:36.405Z,21.70
2023-04-16T00:58:35.650Z,15.20
2023-04-16T00:59:36.286Z,19.90
2023-04-16T01:00:35.768Z,21.50
2023-04-16T01:01:36.423Z,21.10
2023-04-16T01:02:36.449Z,21.40
2023-04-16T01:03:36.540Z,22.10
2023-04-16T01:04:36.234Z,21.30
2023-04-16T01:05:35.598Z,20.20
2023-04-16T01:06:36.332Z,21.40
2023-04-16T01:07:35.643Z,22.20
2023-04-16T01:08:35.592Z,21.80
2023-04-16T01:09:35.632Z,22.40
2023-04-16T01:10:35.734Z,23.40
2023-04-16T01:11:35.796Z,20.90
2023-04-16T01:12:36.251Z,21.20
2023-04-16T01:13:35.941Z,20.30
2023-04-16T01:14:35.481Z,22.70
2023-04-16T01:15:36.235Z,22.00
2023-04-16T01:16:36.122Z,21.50
2023-04-16T01:17:35.617Z,23.20
2023-04-16T01:18:35.432Z,23.00
2023-04-16T01:19:35.422Z,20.90
2023-04-16T01:20:35.418Z,20.20
2023-04-16T01:21:36.154Z,20.80
2023-04-16T01:22:35.465Z,19.30
2023-04-16T01:23:35.252Z,19.10
2023-04-16T01:24:35.327Z,18.90
2023-04-16T01:25:35.257Z,18.60
2023-04-16T01:26:35.275Z,18.70
2023-04-16T01:27:35.451Z,20.00
2023-04-16T01:28:35.237Z,20.00
2023-04-16T01:29:35.234Z,20.70
2023-04-16T01:30:35.169Z,19.20
2023-04-16T01:31:35.409Z,20.50
2023-04-16T01:32:35.163Z,19.20
2023-04-16T01:33:35.205Z,18.90
2023-04-16T01:34:35.133Z,17.70
2023-04-16T01:35:35.253Z,19.40
2023-04-16T01:36:36.006Z,18.10
2023-04-16T01:37:35.908Z,18.30
2023-04-16T01:38:36.060Z,18.90
2023-04-16T01:39:35.956Z,18.40
2023-04-16T01:40:35.146Z,18.40
2023-04-16T01:41:35.022Z,17.90
2023-04-16T01:42:35.953Z,19.70
2023-04-16T01:43:34.998Z,20.00
2023-04-16T01:44:34.988Z,19.60
2023-04-16T01:45:35.067Z,17.90
2023-04-16T01:46:35.839Z,18.20
2023-04-16T01:47:35.011Z,18.00
2023-04-16T01:48:34.966Z,18.00
2023-04-16T01:49:34.946Z,17.20
2023-04-16T01:50:34.914Z,18.40
2023-04-16T01:51:34.938Z,17.40
2023-04-16T01:52:35.761Z,17.80
2023-04-16T01:53:36.935Z,18.80
2023-04-16T01:54:34.908Z,18.40
2023-04-16T01:55:34.887Z,18.50
2023-04-16T01:56:35.146Z,18.50
2023-04-16T01:57:34.852Z,18.50
2023-04-16T01:58:34.857Z,17.00
2023-04-16T01:59:34.833Z,17.20
2023-04-16T02:00:34.965Z,17.20
2023-04-16T02:01:34.817Z,16.90
2023-04-16T02:02:34.862Z,16.60
2023-04-16T02:03:34.881Z,15.60
2023-04-16T02:04:34.834Z,17.30
2023-04-16T02:05:34.758Z,17.30
2023-04-16T02:06:34.784Z,16.20
2023-04-16T02:07:34.786Z,16.20
2023-04-16T02:08:34.877Z,17.30
2023-04-16T02:09:34.774Z,17.20
2023-04-16T02:10:34.661Z,15.90
2023-04-16T02:11:34.653Z,17.00
2023-04-16T02:12:34.702Z,16.60
2023-04-16T02:13:34.765Z,16.30
2023-04-16T02:14:34.688Z,16.00
2023-04-16T02:15:35.166Z,16.40
2023-04-16T02:16:34.600Z,16.20
2023-04-16T02:17:34.552Z,17.30
2023-04-16T02:18:34.541Z,15.70
2023-04-16T02:19:34.509Z,16.00
2023-04-16T02:20:34.532Z,14.60
2023-04-16T02:21:35.267Z,15.60
2023-04-16T02:22:34.478Z,16.20
2023-04-16T02:23:34.460Z,15.80
2023-04-16T02:24:34.514Z,16.00
2023-04-16T02:25:34.532Z,15.60
2023-04-16T02:26:34.669Z,14.70
2023-04-16T02:27:34.449Z,15.30
2023-04-16T02:28:34.538Z,15.30
2023-04-16T02:29:34.372Z,14.40
2023-04-16T02:30:34.436Z,16.20
2023-04-16T02:31:34.770Z,16.00
2023-04-16T02:32:34.406Z,15.40
2023-04-16T02:33:34.812Z,16.00
2023-04-16T02:34:34.381Z,14.70
2023-04-16T02:35:34.378Z,14.90
2023-04-16T02:36:34.309Z,14.90
2023-04-16T02:37:34.633Z,15.50
2023-04-16T02:38:34.274Z,14.70
2023-04-16T02:39:34.369Z,15.00
2023-04-16T02:40:34.212Z,15.90
2023-04-16T02:41:34.201Z,15.90
2023-04-16T02:42:34.367Z,15.50
2023-04-16T02:43:34.122Z,15.70
2023-04-16T02:44:34.492Z,14.20
2023-04-16T02:45:34.211Z,15.30
2023-04-16T02:46:34.443Z,16.00
2023-04-16T02:47:34.211Z,15.50
2023-04-16T02:48:34.109Z,14.90
2023-04-16T02:49:34.094Z,14.00
2023-04-16T02:50:34.055Z,14.90
2023-04-16T02:51:34.098Z,15.30
2023-04-16T02:52:34.276Z,14.30
2023-04-16T02:53:34.033Z,15.20
2023-04-16T02:54:34.173Z,14.50
2023-04-16T02:55:34.026Z,14.20
2023-04-16T02:56:34.090Z,14.90
2023-04-16T02:57:34.053Z,13.60
2023-04-16T02:58:34.146Z,14.80
2023-04-16T02:59:33.925Z,14.80
2023-04-16T03:00:34.276Z,15.40
2023-04-16T03:01:34.526Z,14.40
2023-04-16T03:02:34.562Z,14.60
2023-04-16T03:03:33.948Z,14.50
2023-04-16T03:04:34.236Z,15.00
2023-04-16T03:05:34.043Z,14.20
2023-04-16T03:06:33.894Z,14.70
2023-04-16T03:07:33.900Z,14.90
2023-04-16T03:08:33.912Z,15.10
2023-04-16T03:09:33.907Z,14.30
2023-04-16T03:10:33.908Z,14.90
2023-04-16T03:11:33.777Z,14.90
2023-04-16T03:12:33.909Z,15.30
2023-04-16T03:13:33.760Z,15.40
2023-04-16T03:14:33.789Z,15.40
2023-04-16T03:15:34.341Z,14.90
2023-04-16T03:16:33.720Z,14.80
2023-04-16T03:17:33.968Z,14.60
2023-04-16T03:18:33.739Z,13.90
2023-04-16T03:19:33.989Z,14.60
2023-04-16T03:20:34.459Z,13.60
2023-04-16T03:21:33.713Z,15.10
2023-04-16T03:22:33.682Z,15.40
2023-04-16T03:23:33.650Z,14.20
2023-04-16T03:24:33.697Z,14.40
2023-04-16T03:25:33.612Z,13.90
2023-04-16T03:26:33.655Z,14.80
2023-04-16T03:27:33.719Z,13.80
2023-04-16T03:28:33.576Z,14.60
2023-04-16T03:29:33.536Z,14.00
2023-04-16T03:30:33.639Z,14.50
2023-04-16T03:31:33.584Z,13.80
2023-04-16T03:32:33.543Z,14.50
2023-04-16T03:33:33.552Z,14.50
2023-04-16T03:34:33.491Z,14.50
2023-04-16T03:35:33.472Z,14.70
2023-04-16T03:36:33.460Z,14.70
2023-04-16T03:37:33.458Z,14.80
2023-04-16T03:38:33.425Z,14.90
2023-04-16T03:39:34.195Z,14.70
2023-04-16T03:40:33.375Z,14.90
2023-04-16T03:41:33.345Z,14.30
2023-04-16T03:42:34.141Z,13.40
2023-04-16T03:43:34.305Z,13.70
2023-04-16T03:44:33.482Z,14.60
2023-04-16T03:45:34.116Z,13.80
2023-04-16T03:46:34.413Z,14.90
2023-04-16T03:47:33.434Z,14.30
2023-04-16T03:48:33.333Z,14.00
2023-04-16T03:49:34.225Z,13.50
2023-04-16T03:50:33.253Z,14.00
2023-04-16T03:51:34.032Z,14.70
2023-04-16T03:52:33.217Z,14.00
2023-04-16T03:53:33.365Z,13.20
2023-04-16T03:54:34.005Z,13.80
2023-04-16T03:55:34.198Z,14.20
2023-04-16T03:56:34.108Z,13.60
2023-04-16T03:57:34.008Z,13.40
2023-04-16T03:58:33.870Z,13.60
2023-04-16T03:59:34.081Z,13.10
2023-04-16T04:00:33.972Z,13.80
2023-04-16T04:01:33.849Z,14.10
2023-04-16T04:02:33.189Z,14.20
2023-04-16T04:03:33.611Z,14.50
2023-04-16T04:04:33.330Z,14.70
2023-04-16T04:05:33.130Z,13.60
2023-04-16T04:06:32.996Z,12.60
2023-04-16T04:07:33.776Z,12.80
2023-04-16T04:08:33.660Z,13.90
2023-04-16T04:09:32.972Z,13.60
2023-04-16T04:10:33.747Z,13.90
2023-04-16T04:11:32.933Z,13.20
2023-04-16T04:12:32.968Z,13.00
2023-04-16T04:13:33.742Z,13.30
2023-04-16T04:14:33.013Z,13.00
2023-04-16T04:15:32.964Z,13.60
2023-04-16T04:16:33.122Z,13.10
2023-04-16T04:17:32.917Z,13.70
2023-04-16T04:18:33.753Z,14.40
2023-04-16T04:19:33.649Z,12.80
2023-04-16T04:20:33.844Z,13.30
2023-04-16T04:21:33.748Z,14.10
2023-04-16T04:22:33.644Z,13.30
2023-04-16T04:23:32.884Z,13.80
2023-04-16T04:24:33.682Z,13.80
2023-04-16T04:25:32.737Z,13.70
2023-04-16T04:26:32.779Z,13.80
2023-04-16T04:27:33.294Z,12.80
2023-04-16T04:28:33.610Z,13.60
2023-04-16T04:29:33.577Z,13.20
2023-04-16T04:30:33.648Z,13.70
2023-04-16T04:31:32.681Z,13.40
2023-04-16T04:32:33.483Z,13.60
2023-04-16T04:33:32.632Z,12.80
2023-04-16T04:34:32.631Z,13.10
2023-04-16T04:35:32.589Z,13.70
2023-04-16T04:36:33.557Z,13.00
2023-04-16T04:37:32.571Z,13.60
2023-04-16T04:38:33.012Z,12.90
2023-04-16T04:39:33.563Z,13.30
2023-04-16T04:40:33.429Z,14.10
2023-04-16T04:41:32.530Z,13.30
2023-04-16T04:42:33.582Z,13.80
2023-04-16T04:43:32.468Z,12.80
2023-04-16T04:44:32.470Z,13.90
2023-04-16T04:45:33.501Z,13.90
2023-04-16T04:46:32.701Z,13.40
2023-04-16T04:47:33.376Z,13.20
2023-04-16T04:48:32.462Z,13.70
2023-04-16T04:49:32.400Z,13.50
2023-04-16T04:50:33.262Z,13.50
2023-04-16T04:51:33.148Z,13.60
2023-04-16T04:52:33.312Z,12.60
2023-04-16T04:53:32.418Z,12.30
2023-04-16T04:54:32.333Z,13.30
2023-04-16T04:55:33.308Z,12.70
2023-04-16T04:56:32.358Z,13.50
2023-04-16T04:57:32.348Z,13.70
2023-04-16T04:58:32.296Z,13.20
2023-04-16T04:59:32.366Z,13.30
2023-04-16T05:00:32.213Z,13.20
2023-04-16T05:01:32.331Z,12.90
2023-04-16T05:02:32.269Z,12.70
2023-04-16T05:03:33.110Z,12.60
2023-04-16T05:04:32.289Z,13.10
2023-04-16T05:05:33.089Z,13.20
2023-04-16T05:06:32.167Z,12.90
2023-04-16T05:07:33.140Z,12.60
2023-04-16T05:08:33.067Z,12.00
2023-04-16T05:09:32.962Z,13.10
2023-04-16T05:10:33.154Z,13.90
2023-04-16T05:11:32.109Z,14.10
2023-04-16T05:12:32.947Z,13.90
2023-04-16T05:13:32.063Z,14.00
2023-04-16T05:14:33.005Z,12.60
2023-04-16T05:15:32.055Z,12.80
2023-04-16T05:16:32.043Z,12.40
2023-04-16T05:17:32.196Z,13.60
2023-04-16T05:18:32.870Z,12.40
2023-04-16T05:19:32.052Z,12.70
2023-04-16T05:20:32.082Z,13.40
2023-04-16T05:21:31.947Z,13.20
2023-04-16T05:22:32.108Z,13.70
2023-04-16T05:23:31.965Z,12.80
2023-04-16T05:24:32.212Z,12.30
2023-04-16T05:25:31.898Z,13.50
2023-04-16T05:26:32.134Z,13.90
2023-04-16T05:27:31.969Z,12.90
2023-04-16T05:28:32.317Z,13.60
2023-04-16T05:29:32.090Z,13.10
2023-04-16T05:30:32.266Z,13.10
2023-04-16T05:31:32.127Z,12.60
2023-04-16T05:32:31.941Z,13.60
2023-04-16T05:33:31.758Z,13.40
2023-04-16T05:34:32.616Z,13.60
2023-04-16T05:35:32.814Z,13.70
2023-04-16T05:36:31.956Z,13.00
2023-04-16T05:37:32.080Z,13.40
2023-04-16T05:38:32.140Z,13.60
2023-04-16T05:39:31.691Z,14.10
2023-04-16T05:40:31.666Z,13.80
2023-04-16T05:41:31.692Z,13.90
2023-04-16T05:42:31.673Z,14.20
2023-04-16T05:43:32.138Z,13.60
2023-04-16T05:44:31.630Z,13.80
2023-04-16T05:45:31.602Z,14.40
2023-04-16T05:46:32.192Z,14.50
2023-04-16T05:47:32.175Z,14.00
2023-04-16T05:48:32.081Z,14.20
2023-04-16T05:49:31.524Z,14.30
2023-04-16T05:50:31.528Z,15.00
2023-04-16T05:51:31.529Z,13.80
2023-04-16T05:52:31.490Z,14.20
2023-04-16T05:53:31.525Z,13.90
2023-04-16T05:54:32.490Z,14.50
2023-04-16T05:55:31.465Z,14.80
2023-04-16T05:56:31.483Z,14.90
2023-04-16T05:57:31.550Z,14.80
2023-04-16T05:58:32.336Z,15.80
2023-04-16T05:59:31.605Z,14.40
2023-04-16T06:00:31.409Z,16.30
2023-04-16T06:01:32.822Z,15.10
2023-04-16T06:02:32.379Z,14.70
2023-04-16T06:03:31.402Z,15.40
2023-04-16T06:04:31.449Z,14.90
2023-04-16T06:05:31.397Z,14.50
2023-04-16T06:06:31.305Z,15.60
2023-04-16T06:07:31.325Z,14.40
2023-04-16T06:08:31.315Z,15.70
2023-04-16T06:09:31.248Z,14.90
2023-04-16T06:10:31.290Z,14.80
2023-04-16T06:11:31.255Z,15.20
2023-04-16T06:12:31.223Z,15.50
2023-04-16T06:13:31.236Z,15.70
2023-04-16T06:14:31.236Z,15.30
2023-04-16T06:15:31.193Z,17.50
2023-04-16T06:16:31.227Z,16.50
2023-04-16T06:17:31.203Z,15.80
2023-04-16T06:18:31.747Z,16.30
2023-04-16T06:19:31.657Z,15.10
2023-04-16T06:20:31.266Z,16.60
2023-04-16T06:21:31.145Z,16.00
2023-04-16T06:22:31.097Z,16.00
2023-04-16T06:23:31.142Z,16.50
2023-04-16T06:24:31.143Z,17.50
2023-04-16T06:25:31.062Z,16.00
2023-04-16T06:26:31.043Z,15.80
2023-04-16T06:27:31.524Z,16.60
2023-04-16T06:28:30.992Z,15.30
2023-04-16T06:29:40.611Z,16.50
2023-04-16T06:30:32.010Z,15.30
2023-04-16T06:31:30.977Z,16.00
2023-04-16T06:32:31.020Z,16.30
2023-04-16T06:33:30.938Z,15.90
2023-04-16T06:34:30.951Z,15.70
2023-04-16T06:35:30.916Z,16.60
2023-04-16T06:36:30.904Z,15.40
2023-04-16T06:37:30.899Z,16.00
2023-04-16T06:38:30.868Z,16.80
2023-04-16T06:39:30.840Z,15.90
2023-04-16T06:40:30.866Z,16.60
2023-04-16T06:41:30.829Z,15.80
2023-04-16T06:42:30.819Z,16.70
2023-04-16T06:43:30.791Z,16.30
2023-04-16T06:44:31.787Z,16.30
2023-04-16T06:45:30.777Z,15.40
2023-04-16T06:46:30.833Z,15.50
2023-04-16T06:47:30.745Z,16.30
2023-04-16T06:48:30.713Z,16.10
2023-04-16T06:49:37.025Z,16.00
2023-04-16T06:50:30.730Z,15.70
2023-04-16T06:51:30.695Z,15.80
2023-04-16T06:52:30.719Z,15.60
2023-04-16T06:53:30.717Z,16.70
2023-04-16T06:54:30.711Z,15.10
2023-04-16T06:55:31.507Z,16.30
2023-04-16T06:56:31.489Z,15.70
2023-04-16T06:57:31.605Z,15.70
2023-04-16T06:58:31.476Z,17.00
2023-04-16T06:59:30.690Z,16.00
2023-04-16T07:00:30.594Z,15.90
2023-04-16T07:01:30.673Z,15.10
2023-04-16T07:02:30.682Z,15.30
2023-04-16T07:03:31.681Z,16.10
2023-04-16T07:04:31.380Z,14.80
2023-04-16T07:05:30.517Z,15.80
2023-04-16T07:06:30.513Z,16.40
2023-04-16T07:07:31.346Z,14.50
2023-04-16T07:08:31.249Z,15.60
2023-04-16T07:09:30.439Z,13.60
2023-04-16T07:10:30.445Z,15.50
2023-04-16T07:11:30.448Z,14.60
2023-04-16T07:12:31.373Z,14.80
2023-04-16T07:13:31.285Z,14.90
2023-04-16T07:14:30.427Z,15.10
2023-04-16T07:15:31.383Z,14.70
2023-04-16T07:16:31.278Z,14.60
2023-04-16T07:17:30.335Z,15.10
2023-04-16T07:18:31.103Z,14.80
2023-04-16T07:19:30.304Z,14.90
2023-04-16T07:20:31.125Z,14.40
2023-04-16T07:21:30.268Z,14.80
2023-04-16T07:22:31.225Z,15.40
2023-04-16T07:23:30.381Z,14.30
2023-04-16T07:24:30.255Z,14.80
2023-04-16T07:25:31.220Z,14.30
2023-04-16T07:26:30.203Z,14.90
2023-04-16T07:27:30.979Z,14.60
2023-04-16T07:28:30.420Z,14.70
2023-04-16T07:29:31.044Z,14.90
2023-04-16T07:30:30.223Z,15.40
2023-04-16T07:31:31.142Z,16.20
2023-04-16T07:32:30.155Z,14.40
2023-04-16T07:33:30.901Z,15.30
2023-04-16T07:34:30.114Z,15.50
2023-04-16T07:35:30.164Z,14.70
2023-04-16T07:36:30.071Z,16.30
2023-04-16T07:37:31.036Z,15.50
2023-04-16T07:38:30.963Z,15.90
2023-04-16T07:39:30.831Z,15.00
2023-04-16T07:40:31.094Z,15.40
2023-04-16T07:41:30.941Z,15.90
2023-04-16T07:42:30.060Z,15.70
2023-04-16T07:43:29.985Z,15.50
2023-04-16T07:44:30.869Z,16.90
2023-04-16T07:45:29.967Z,16.40
2023-04-16T07:46:43.134Z,15.30
2023-04-16T07:47:30.998Z,16.00
2023-04-16T07:48:30.786Z,16.30
2023-04-16T07:49:30.644Z,16.40
2023-04-16T07:50:30.812Z,16.50
2023-04-16T07:51:30.743Z,16.50
2023-04-16T07:52:30.608Z,15.90
2023-04-16T07:53:30.567Z,16.60
2023-04-16T07:54:30.716Z,16.40
2023-04-16T07:55:30.649Z,16.40
2023-04-16T07:56:29.783Z,15.80
2023-04-16T07:57:30.675Z,15.80
2023-04-16T07:58:30.551Z,16.40
2023-04-16T07:59:29.930Z,16.60
2023-04-16T08:00:29.737Z,15.30
2023-04-16T08:01:29.719Z,15.70
2023-04-16T08:02:30.772Z,15.00
2023-04-16T08:03:30.841Z,16.50
2023-04-16T08:04:29.907Z,16.30
2023-04-16T08:05:30.643Z,16.00
2023-04-16T08:06:29.644Z,14.50
2023-04-16T08:07:30.491Z,16.30
2023-04-16T08:08:30.606Z,15.50
2023-04-16T08:09:30.511Z,16.60
2023-04-16T08:10:30.585Z,15.70
2023-04-16T08:11:30.600Z,16.80
2023-04-16T08:12:30.488Z,15.70
2023-04-16T08:13:31.206Z,14.90
2023-04-16T08:14:29.623Z,15.50
2023-04-16T08:15:30.480Z,15.40
2023-04-16T08:16:29.553Z,15.10
2023-04-16T08:17:29.555Z,15.50
2023-04-16T08:18:29.525Z,14.60
2023-04-16T08:19:30.325Z,14.60
2023-04-16T08:20:29.500Z,14.60
2023-04-16T08:21:30.385Z,14.50
2023-04-16T08:22:29.444Z,14.70
2023-04-16T08:23:29.424Z,14.50
2023-04-16T08:24:29.447Z,14.50
2023-04-16T08:25:29.383Z,15.20
2023-04-16T08:26:29.361Z,13.90
2023-04-16T08:27:29.357Z,14.00
2023-04-16T08:28:29.353Z,14.50
2023-04-16T08:29:29.352Z,14.30
2023-04-16T08:30:30.304Z,14.10
2023-04-16T08:31:29.297Z,13.80
2023-04-16T08:32:30.156Z,13.80
2023-04-16T08:33:29.257Z,14.40
2023-04-16T08:34:29.260Z,13.90
2023-04-16T08:35:29.235Z,13.90
2023-04-16T08:36:30.238Z,14.10
2023-04-16T08:37:30.140Z,13.90
2023-04-16T08:38:29.196Z,13.10
2023-04-16T08:39:29.162Z,13.70
2023-04-16T08:40:29.158Z,14.40
2023-04-16T08:41:29.225Z,13.90
2023-04-16T08:42:29.155Z,14.10
2023-04-16T08:43:29.129Z,13.70
2023-04-16T08:44:29.093Z,13.30
2023-04-16T08:45:29.374Z,13.80
2023-04-16T08:46:29.113Z,13.90
2023-04-16T08:47:29.164Z,13.30
2023-04-16T08:48:29.078Z,12.80
2023-04-16T08:49:29.008Z,13.30
2023-04-16T08:50:29.115Z,13.20
2023-04-16T08:51:28.982Z,13.70
2023-04-16T08:52:29.081Z,14.10
2023-04-16T08:53:28.977Z,12.90
2023-04-16T08:54:29.029Z,12.00
2023-04-16T08:55:29.064Z,13.70
2023-04-16T08:56:29.021Z,13.40
2023-04-16T08:57:29.086Z,13.40
2023-04-16T08:58:29.050Z,13.60
2023-04-16T08:59:28.964Z,13.10
2023-04-16T09:00:28.884Z,13.00
2023-04-16T09:01:28.873Z,13.50
2023-04-16T09:02:29.172Z,13.90
2023-04-16T09:03:29.220Z,13.90
2023-04-16T09:04:29.276Z,13.60
2023-04-16T09:05:29.032Z,14.50
2023-04-16T09:06:29.099Z,13.90
2023-04-16T09:07:29.080Z,14.00
2023-04-16T09:08:29.082Z,14.40
2023-04-16T09:09:28.809Z,13.70
2023-04-16T09:10:29.075Z,14.20
2023-04-16T09:11:29.032Z,13.60
2023-04-16T09:12:29.124Z,14.40
2023-04-16T09:13:29.120Z,13.90
2023-04-16T09:14:28.713Z,13.50
2023-04-16T09:15:29.008Z,13.40
2023-04-16T09:16:28.662Z,13.20
2023-04-16T09:17:28.633Z,14.00
2023-04-16T09:18:28.615Z,13.30
2023-04-16T09:19:28.639Z,13.70
2023-04-16T09:20:28.611Z,13.50
2023-04-16T09:21:28.600Z,13.60
2023-04-16T09:22:28.548Z,13.30
2023-04-16T09:23:28.550Z,14.40
2023-04-16T09:24:28.547Z,12.90
2023-04-16T09:25:28.615Z,13.10
2023-04-16T09:26:28.528Z,13.40
2023-04-16T09:27:28.527Z,13.50
2023-04-16T09:28:28.615Z,12.40
2023-04-16T09:29:28.556Z,13.90
2023-04-16T09:30:28.469Z,13.40
2023-04-16T09:31:28.451Z,12.60
2023-04-16T09:32:28.440Z,13.30
2023-04-16T09:33:28.445Z,13.10
2023-04-16T09:34:28.361Z,13.70
2023-04-16T09:35:28.391Z,13.30
2023-04-16T09:36:28.350Z,13.90
2023-04-16T09:37:29.241Z,13.40
2023-04-16T09:38:28.339Z,13.80
2023-04-16T09:39:28.303Z,13.70
2023-04-16T09:40:28.337Z,13.60
2023-04-16T09:41:28.291Z,12.40
2023-04-16T09:42:28.310Z,13.10
2023-04-16T09:43:28.268Z,12.70
2023-04-16T09:44:28.238Z,13.10
2023-04-16T09:45:28.517Z,12.90
2023-04-16T09:46:28.305Z,13.00
2023-04-16T09:47:28.263Z,13.00
2023-04-16T09:48:28.215Z,13.00
2023-04-16T09:49:28.169Z,12.80
2023-04-16T09:50:28.146Z,12.30
2023-04-16T09:51:28.130Z,12.50
2023-04-16T09:52:28.106Z,12.70
2023-04-16T09:53:28.129Z,11.70
2023-04-16T09:54:28.117Z,12.50
2023-04-16T09:55:28.107Z,12.60
2023-04-16T09:56:28.067Z,11.90
2023-04-16T09:57:28.077Z,12.40
2023-04-16T09:58:28.052Z,12.10
2023-04-16T09:59:28.600Z,12.10
2023-04-16T10:00:28.047Z,12.50
2023-04-16T10:01:28.078Z,11.50
2023-04-16T10:02:28.037Z,12.40
2023-04-16T10:03:28.056Z,13.00
2023-04-16T10:04:28.003Z,12.60
2023-04-16T10:05:27.944Z,12.60
2023-04-16T10:06:27.935Z,12.50
2023-04-16T10:07:27.934Z,12.20
2023-04-16T10:08:27.915Z,12.60
2023-04-16T10:09:27.908Z,11.70
2023-04-16T10:10:27.901Z,11.90
2023-04-16T10:11:28.829Z,11.60
2023-04-16T10:12:27.888Z,11.50
2023-04-16T10:13:27.863Z,12.90
2023-04-16T10:14:27.867Z,12.80
2023-04-16T10:15:27.826Z,12.90
2023-04-16T10:16:27.844Z,12.20
2023-04-16T10:17:27.893Z,11.30
2023-04-16T10:18:27.755Z,12.30
2023-04-16T10:19:27.753Z,12.10
2023-04-16T10:20:27.787Z,12.40
2023-04-16T10:21:28.598Z,11.90
2023-04-16T10:22:27.704Z,11.60
2023-04-16T10:23:28.650Z,11.90
2023-04-16T10:24:27.710Z,12.00
2023-04-16T10:25:27.682Z,11.10
2023-04-16T10:26:27.678Z,11.80
2023-04-16T10:27:28.579Z,12.30
2023-04-16T10:28:28.474Z,11.60
2023-04-16T10:29:27.617Z,11.90
2023-04-16T10:30:27.662Z,11.40
2023-04-16T10:31:27.671Z,10.90
2023-04-16T10:32:27.861Z,10.70
2023-04-16T10:33:28.476Z,10.60
2023-04-16T10:34:28.377Z,10.80
2023-04-16T10:35:28.561Z,11.30
2023-04-16T10:36:28.438Z,11.20
2023-04-16T10:37:27.526Z,10.90
2023-04-16T10:38:28.513Z,10.70
2023-04-16T10:39:28.433Z,11.30
2023-04-16T10:40:27.500Z,10.70
2023-04-16T10:41:27.557Z,10.40
2023-04-16T10:42:28.396Z,11.00
2023-04-16T10:43:27.428Z,9.20
2023-04-16T10:44:28.202Z,10.40
2023-04-16T10:45:27.415Z,10.50
2023-04-16T10:46:28.305Z,9.80
2023-04-16T10:47:28.191Z,9.70
2023-04-16T10:48:33.146Z,9.90
2023-04-16T10:49:28.334Z,10.00
2023-04-16T10:50:28.115Z,10.30
2023-04-16T10:51:28.293Z,10.10
2023-04-16T10:52:28.211Z,9.30
2023-04-16T10:53:28.118Z,10.60
2023-04-16T10:54:28.263Z,10.00
2023-04-16T10:55:28.199Z,10.80
2023-04-16T10:56:28.144Z,10.20
2023-04-16T10:57:28.247Z,10.50
2023-04-16T10:58:27.216Z,10.70
2023-04-16T10:59:27.309Z,10.60
2023-04-16T11:00:27.241Z,10.60
2023-04-16T11:01:28.117Z,10.00
2023-04-16T11:02:28.147Z,10.90
2023-04-16T11:03:28.292Z,10.70
2023-04-16T11:04:28.222Z,10.80
2023-04-16T11:05:27.954Z,10.70
2023-04-16T11:06:28.142Z,11.20
2023-04-16T11:07:27.117Z,10.00
2023-04-16T11:08:27.937Z,10.60
2023-04-16T11:09:27.070Z,10.10
2023-04-16T11:10:27.051Z,10.30
2023-04-16T11:11:27.037Z,10.70
2023-04-16T11:12:27.055Z,11.00
2023-04-16T11:13:27.993Z,10.60
2023-04-16T11:14:27.856Z,11.30
2023-04-16T11:15:28.027Z,10.70
2023-04-16T11:16:27.052Z,10.80
2023-04-16T11:17:26.972Z,10.60
2023-04-16T11:18:27.728Z,10.40
2023-04-16T11:19:26.932Z,9.80
2023-04-16T11:20:27.809Z,9.00
2023-04-16T11:21:26.935Z,9.60
2023-04-16T11:22:27.870Z,9.10
2023-04-16T11:23:27.794Z,9.90
2023-04-16T11:24:27.693Z,9.20
2023-04-16T11:25:26.856Z,9.60
2023-04-16T11:26:27.731Z,9.40
2023-04-16T11:27:27.636Z,9.10
2023-04-16T11:28:26.849Z,9.80
2023-04-16T11:29:27.694Z,10.00
2023-04-16T11:30:27.600Z,10.00
2023-04-16T11:31:27.780Z,10.20
2023-04-16T11:32:27.719Z,10.30
2023-04-16T11:33:27.574Z,10.30
2023-04-16T11:34:27.746Z,11.50
2023-04-16T11:35:27.673Z,12.30
2023-04-16T11:36:27.870Z,11.50
2023-04-16T11:37:27.439Z,11.30
2023-04-16T11:38:26.685Z,12.00
2023-04-16T11:39:26.676Z,12.00
2023-04-16T11:40:27.429Z,11.30
2023-04-16T11:41:27.568Z,12.80
2023-04-16T11:42:27.493Z,12.30
2023-04-16T11:43:27.394Z,11.80
2023-04-16T11:44:27.576Z,11.30
2023-04-16T11:45:26.564Z,11.60
2023-04-16T11:46:28.050Z,12.60
2023-04-16T11:47:26.661Z,12.20
2023-04-16T11:48:26.526Z,12.40
2023-04-16T11:49:26.538Z,11.20
2023-04-16T11:50:27.505Z,11.50
2023-04-16T11:51:26.496Z,11.10
2023-04-16T11:52:26.584Z,10.20
2023-04-16T11:53:26.520Z,11.20
2023-04-16T11:54:26.496Z,11.30
2023-04-16T11:55:26.556Z,11.00
2023-04-16T11:56:26.524Z,11.00
2023-04-16T11:57:27.318Z,11.90
2023-04-16T11:58:27.214Z,12.10
2023-04-16T11:59:27.229Z,11.70
2023-04-16T12:00:26.414Z,10.90
2023-04-16T12:01:26.356Z,11.00
2023-04-16T12:02:26.570Z,11.70
2023-04-16T12:03:27.349Z,11.30
2023-04-16T12:04:27.388Z,11.30
2023-04-16T12:05:26.316Z,10.90
2023-04-16T12:06:27.223Z,10.90
2023-04-16T12:07:27.145Z,11.00
2023-04-16T12:08:27.030Z,10.70
2023-04-16T12:09:27.224Z,10.60
2023-04-16T12:10:27.111Z,10.00
2023-04-16T12:11:26.344Z,10.40
2023-04-16T12:12:26.226Z,10.60
2023-04-16T12:13:26.381Z,10.70
2023-04-16T12:14:26.206Z,10.30
2023-04-16T12:15:26.313Z,10.90
2023-04-16T12:16:26.394Z,9.60
2023-04-16T12:17:26.372Z,10.30
2023-04-16T12:18:26.165Z,10.10
2023-04-16T12:19:27.013Z,9.90
2023-04-16T12:20:26.162Z,10.10
2023-04-16T12:21:26.117Z,10.10
2023-04-16T12:22:26.284Z,10.20
2023-04-16T12:23:26.081Z,9.90
2023-04-16T12:24:26.056Z,10.30
2023-04-16T12:25:26.018Z,10.10
2023-04-16T12:26:26.120Z,9.80
2023-04-16T12:27:26.009Z,10.30
2023-04-16T12:28:26.007Z,10.00
2023-04-16T12:29:26.169Z,9.60
2023-04-16T12:30:26.054Z,9.40
2023-04-16T12:31:26.060Z,9.90
2023-04-16T12:32:26.065Z,9.80
2023-04-16T12:33:26.685Z,9.50
2023-04-16T12:34:41.880Z,10.20
2023-04-16T12:35:26.874Z,10.20
2023-04-16T12:36:26.095Z,9.90
2023-04-16T12:37:25.867Z,9.80
2023-04-16T12:38:25.994Z,10.30
2023-04-16T12:39:25.882Z,10.20
2023-04-16T12:40:25.856Z,9.40
2023-04-16T12:41:25.958Z,10.00
2023-04-16T12:42:25.804Z,9.20
2023-04-16T12:43:25.922Z,9.10
2023-04-16T12:44:25.831Z,9.90
2023-04-16T12:45:26.087Z,9.50
2023-04-16T12:46:25.798Z,9.70
2023-04-16T12:47:25.766Z,10.00
2023-04-16T12:48:25.849Z,9.40
2023-04-16T12:49:25.735Z,8.80
2023-04-16T12:50:25.711Z,9.10
2023-04-16T12:51:25.727Z,9.80
2023-04-16T12:52:25.706Z,9.20
2023-04-16T12:53:26.041Z,9.60